sensor_id;sensor_type;location;lat;lon;timestamp;P1;durP1;ratioP1;P2;durP2;ratioP2
14613;SDS011;7393;51.446;6.800;2023-02-28T00:00:10;5.83;;;4.20;;
14613;SDS011;7393;51.446;6.800;2023-02-28T00:02:39;6.33;;;3.73;;
14613;SDS011;7393;51.446;6.800;2023-02-28T00:05:08;10.23;;;4.30;;
14613;SDS011;7393;51.446;6.800;2023-02-28T00:07:36;5.80;;;4.00;;
14613;SDS011;7393;51.446;6.800;2023-02-28T00:10:03;8.13;;;4.07;;
14613;SDS011;7393;51.446;6.800;2023-02-28T00:12:32;6.87;;;4.07;;
14613;SDS011;7393;51.446;6.800;2023-02-28T00:14:59;6.73;;;4.37;;
14613;SDS011;7393;51.446;6.800;2023-02-28T00:17:26;6.13;;;4.00;;
14613;SDS011;7393;51.446;6.800;2023-02-28T00:19:53;6.53;;;4.00;;
14613;SDS011;7393;51.446;6.800;2023-02-28T00:22:21;8.67;;;4.20;;
14613;SDS011;7393;51.446;6.800;2023-02-28T00:24:48;9.50;;;4.23;;
14613;SDS011;7393;51.446;6.800;2023-02-28T00:27:15;8.30;;;4.27;;
14613;SDS011;7393;51.446;6.800;2023-02-28T00:29:42;8.80;;;4.13;;
14613;SDS011;7393;51.446;6.800;2023-02-28T00:32:09;5.47;;;4.37;;
14613;SDS011;7393;51.446;6.800;2023-02-28T00:34:35;6.53;;;4.37;;
14613;SDS011;7393;51.446;6.800;2023-02-28T00:37:03;7.30;;;4.43;;
14613;SDS011;7393;51.446;6.800;2023-02-28T00:39:35;8.33;;;4.37;;
14613;SDS011;7393;51.446;6.800;2023-02-28T00:42:03;5.50;;;4.37;;
14613;SDS011;7393;51.446;6.800;2023-02-28T00:44:30;8.13;;;4.13;;
14613;SDS011;7393;51.446;6.800;2023-02-28T00:46:57;6.30;;;4.40;;
14613;SDS011;7393;51.446;6.800;2023-02-28T00:49:25;6.53;;;4.37;;
14613;SDS011;7393;51.446;6.800;2023-02-28T00:51:52;7.23;;;4.73;;
14613;SDS011;7393;51.446;6.800;2023-02-28T00:54:20;6.63;;;4.30;;
14613;SDS011;7393;51.446;6.800;2023-02-28T00:56:48;8.33;;;4.13;;
14613;SDS011;7393;51.446;6.800;2023-02-28T00:59:16;6.57;;;4.20;;
14613;SDS011;7393;51.446;6.800;2023-02-28T01:01:43;5.87;;;4.20;;
14613;SDS011;7393;51.446;6.800;2023-02-28T01:04:12;4.83;;;3.90;;
14613;SDS011;7393;51.446;6.800;2023-02-28T01:06:40;6.10;;;3.87;;
14613;SDS011;7393;51.446;6.800;2023-02-28T01:09:07;7.77;;;4.43;;
14613;SDS011;7393;51.446;6.800;2023-02-28T01:11:34;6.10;;;4.30;;
14613;SDS011;7393;51.446;6.800;2023-02-28T01:14:03;7.27;;;4.33;;
14613;SDS011;7393;51.446;6.800;2023-02-28T01:16:30;8.00;;;4.10;;
14613;SDS011;7393;51.446;6.800;2023-02-28T01:18:57;5.53;;;3.70;;
14613;SDS011;7393;51.446;6.800;2023-02-28T01:21:24;4.97;;;3.77;;
14613;SDS011;7393;51.446;6.800;2023-02-28T01:23:51;4.17;;;3.13;;
14613;SDS011;7393;51.446;6.800;2023-02-28T01:26:18;6.40;;;3.73;;
14613;SDS011;7393;51.446;6.800;2023-02-28T01:28:47;7.17;;;4.20;;
14613;SDS011;7393;51.446;6.800;2023-02-28T01:31:15;4.97;;;3.53;;
14613;SDS011;7393;51.446;6.800;2023-02-28T01:33:44;6.17;;;4.00;;
14613;SDS011;7393;51.446;6.800;2023-02-28T01:36:12;6.27;;;4.17;;
14613;SDS011;7393;51.446;6.800;2023-02-28T01:38:40;5.50;;;4.03;;
14613;SDS011;7393;51.446;6.800;2023-02-28T01:41:07;6.03;;;3.60;;
14613;SDS011;7393;51.446;6.800;2023-02-28T01:43:52;6.30;;;4.30;;
14613;SDS011;7393;51.446;6.800;2023-02-28T01:46:23;5.00;;;3.30;;
14613;SDS011;7393;51.446;6.800;2023-02-28T01:48:51;5.90;;;3.60;;
14613;SDS011;7393;51.446;6.800;2023-02-28T01:51:23;6.73;;;3.50;;
14613;SDS011;7393;51.446;6.800;2023-02-28T01:53:55;5.27;;;3.63;;
14613;SDS011;7393;51.446;6.800;2023-02-28T01:56:26;5.57;;;3.93;;
14613;SDS011;7393;51.446;6.800;2023-02-28T01:58:56;4.57;;;3.50;;
14613;SDS011;7393;51.446;6.800;2023-02-28T02:01:25;5.83;;;3.67;;
14613;SDS011;7393;51.446;6.800;2023-02-28T02:03:54;7.67;;;3.40;;
14613;SDS011;7393;51.446;6.800;2023-02-28T02:06:22;4.10;;;3.37;;
14613;SDS011;7393;51.446;6.800;2023-02-28T02:08:50;5.20;;;3.60;;
14613;SDS011;7393;51.446;6.800;2023-02-28T02:11:18;5.67;;;3.20;;
14613;SDS011;7393;51.446;6.800;2023-02-28T02:13:54;6.90;;;3.33;;
14613;SDS011;7393;51.446;6.800;2023-02-28T02:16:46;4.40;;;3.47;;
14613;SDS011;7393;51.446;6.800;2023-02-28T02:19:28;4.60;;;3.27;;
14613;SDS011;7393;51.446;6.800;2023-02-28T02:22:27;7.10;;;3.50;;
14613;SDS011;7393;51.446;6.800;2023-02-28T02:25:11;7.13;;;3.43;;
14613;SDS011;7393;51.446;6.800;2023-02-28T02:27:56;5.33;;;3.37;;
14613;SDS011;7393;51.446;6.800;2023-02-28T02:30:43;8.83;;;3.63;;
14613;SDS011;7393;51.446;6.800;2023-02-28T02:33:28;3.93;;;3.00;;
14613;SDS011;7393;51.446;6.800;2023-02-28T02:36:22;5.07;;;3.00;;
14613;SDS011;7393;51.446;6.800;2023-02-28T02:38:52;6.00;;;3.03;;
14613;SDS011;7393;51.446;6.800;2023-02-28T02:41:26;4.17;;;2.90;;
14613;SDS011;7393;51.446;6.800;2023-02-28T02:44:01;6.03;;;3.10;;
14613;SDS011;7393;51.446;6.800;2023-02-28T02:46:31;5.73;;;3.60;;
14613;SDS011;7393;51.446;6.800;2023-02-28T02:49:00;5.60;;;3.00;;
14613;SDS011;7393;51.446;6.800;2023-02-28T02:51:32;6.27;;;3.10;;
14613;SDS011;7393;51.446;6.800;2023-02-28T02:54:02;5.70;;;3.20;;
14613;SDS011;7393;51.446;6.800;2023-02-28T02:56:31;5.57;;;3.13;;
14613;SDS011;7393;51.446;6.800;2023-02-28T02:59:01;7.70;;;2.97;;
14613;SDS011;7393;51.446;6.800;2023-02-28T03:01:31;5.07;;;3.20;;
14613;SDS011;7393;51.446;6.800;2023-02-28T03:04:01;6.20;;;3.20;;
14613;SDS011;7393;51.446;6.800;2023-02-28T03:06:36;4.53;;;2.60;;
14613;SDS011;7393;51.446;6.800;2023-02-28T03:09:03;5.73;;;2.97;;
14613;SDS011;7393;51.446;6.800;2023-02-28T03:11:30;4.27;;;2.63;;
14613;SDS011;7393;51.446;6.800;2023-02-28T03:14:02;5.03;;;2.90;;
14613;SDS011;7393;51.446;6.800;2023-02-28T03:16:51;5.40;;;3.07;;
14613;SDS011;7393;51.446;6.800;2023-02-28T03:19:39;5.30;;;2.90;;
14613;SDS011;7393;51.446;6.800;2023-02-28T03:22:18;4.90;;;2.90;;
14613;SDS011;7393;51.446;6.800;2023-02-28T03:25:00;4.63;;;2.70;;
14613;SDS011;7393;51.446;6.800;2023-02-28T03:27:34;3.73;;;3.03;;
14613;SDS011;7393;51.446;6.800;2023-02-28T03:30:06;4.17;;;3.03;;
14613;SDS011;7393;51.446;6.800;2023-02-28T03:32:36;4.30;;;2.60;;
14613;SDS011;7393;51.446;6.800;2023-02-28T03:35:09;5.53;;;3.10;;
14613;SDS011;7393;51.446;6.800;2023-02-28T03:37:41;4.73;;;3.10;;
14613;SDS011;7393;51.446;6.800;2023-02-28T03:40:11;5.47;;;3.20;;
14613;SDS011;7393;51.446;6.800;2023-02-28T03:42:43;4.77;;;2.60;;
14613;SDS011;7393;51.446;6.800;2023-02-28T03:45:15;4.63;;;3.40;;
14613;SDS011;7393;51.446;6.800;2023-02-28T03:47:46;4.43;;;2.50;;
14613;SDS011;7393;51.446;6.800;2023-02-28T03:50:18;5.83;;;3.07;;
14613;SDS011;7393;51.446;6.800;2023-02-28T03:52:50;4.03;;;2.83;;
14613;SDS011;7393;51.446;6.800;2023-02-28T03:55:26;7.43;;;3.17;;
14613;SDS011;7393;51.446;6.800;2023-02-28T03:57:57;4.97;;;3.20;;
14613;SDS011;7393;51.446;6.800;2023-02-28T04:00:28;5.03;;;3.07;;
14613;SDS011;7393;51.446;6.800;2023-02-28T04:02:58;4.47;;;2.97;;
14613;SDS011;7393;51.446;6.800;2023-02-28T04:05:25;6.00;;;3.50;;
14613;SDS011;7393;51.446;6.800;2023-02-28T04:07:55;6.70;;;3.30;;
14613;SDS011;7393;51.446;6.800;2023-02-28T04:10:29;5.87;;;3.27;;
14613;SDS011;7393;51.446;6.800;2023-02-28T04:12:56;4.93;;;3.00;;
14613;SDS011;7393;51.446;6.800;2023-02-28T04:15:23;3.33;;;2.93;;
14613;SDS011;7393;51.446;6.800;2023-02-28T04:17:52;5.37;;;3.50;;
14613;SDS011;7393;51.446;6.800;2023-02-28T04:20:19;4.47;;;3.53;;
14613;SDS011;7393;51.446;6.800;2023-02-28T04:22:46;7.17;;;3.60;;
14613;SDS011;7393;51.446;6.800;2023-02-28T04:25:14;5.80;;;3.43;;
14613;SDS011;7393;51.446;6.800;2023-02-28T04:27:40;7.77;;;3.40;;
14613;SDS011;7393;51.446;6.800;2023-02-28T04:30:10;6.13;;;3.20;;
14613;SDS011;7393;51.446;6.800;2023-02-28T04:32:37;5.63;;;3.33;;
14613;SDS011;7393;51.446;6.800;2023-02-28T04:35:04;6.17;;;3.43;;
14613;SDS011;7393;51.446;6.800;2023-02-28T04:37:31;6.83;;;3.67;;
14613;SDS011;7393;51.446;6.800;2023-02-28T04:39:59;5.77;;;3.37;;
14613;SDS011;7393;51.446;6.800;2023-02-28T04:42:27;6.50;;;3.63;;
14613;SDS011;7393;51.446;6.800;2023-02-28T04:45:00;7.83;;;3.77;;
14613;SDS011;7393;51.446;6.800;2023-02-28T04:47:27;5.50;;;3.27;;
14613;SDS011;7393;51.446;6.800;2023-02-28T04:49:54;5.53;;;3.23;;
14613;SDS011;7393;51.446;6.800;2023-02-28T04:52:21;6.27;;;3.50;;
14613;SDS011;7393;51.446;6.800;2023-02-28T04:54:48;6.63;;;3.27;;
14613;SDS011;7393;51.446;6.800;2023-02-28T04:57:15;4.23;;;3.07;;
14613;SDS011;7393;51.446;6.800;2023-02-28T04:59:43;8.13;;;3.73;;
14613;SDS011;7393;51.446;6.800;2023-02-28T05:02:10;5.07;;;3.37;;
14613;SDS011;7393;51.446;6.800;2023-02-28T05:04:37;7.47;;;3.40;;
14613;SDS011;7393;51.446;6.800;2023-02-28T05:07:03;6.37;;;3.60;;
14613;SDS011;7393;51.446;6.800;2023-02-28T05:09:30;5.77;;;3.43;;
14613;SDS011;7393;51.446;6.800;2023-02-28T05:11:58;6.03;;;3.23;;
14613;SDS011;7393;51.446;6.800;2023-02-28T05:14:24;7.17;;;3.77;;
14613;SDS011;7393;51.446;6.800;2023-02-28T05:16:52;6.63;;;3.70;;
14613;SDS011;7393;51.446;6.800;2023-02-28T05:19:19;4.70;;;3.17;;
14613;SDS011;7393;51.446;6.800;2023-02-28T05:21:50;6.13;;;3.77;;
14613;SDS011;7393;51.446;6.800;2023-02-28T05:24:18;6.13;;;3.70;;
14613;SDS011;7393;51.446;6.800;2023-02-28T05:26:48;8.27;;;4.10;;
14613;SDS011;7393;51.446;6.800;2023-02-28T05:29:16;5.70;;;3.50;;
14613;SDS011;7393;51.446;6.800;2023-02-28T05:31:44;7.17;;;3.90;;
14613;SDS011;7393;51.446;6.800;2023-02-28T05:34:12;6.20;;;3.53;;
14613;SDS011;7393;51.446;6.800;2023-02-28T05:36:40;5.50;;;3.80;;
14613;SDS011;7393;51.446;6.800;2023-02-28T05:39:07;5.87;;;3.53;;
14613;SDS011;7393;51.446;6.800;2023-02-28T05:41:37;5.47;;;3.27;;
14613;SDS011;7393;51.446;6.800;2023-02-28T05:44:05;5.13;;;3.77;;
14613;SDS011;7393;51.446;6.800;2023-02-28T05:46:32;6.73;;;3.63;;
14613;SDS011;7393;51.446;6.800;2023-02-28T05:48:58;6.43;;;3.13;;
14613;SDS011;7393;51.446;6.800;2023-02-28T05:51:27;4.57;;;3.10;;
14613;SDS011;7393;51.446;6.800;2023-02-28T05:53:54;9.00;;;2.93;;
14613;SDS011;7393;51.446;6.800;2023-02-28T05:56:24;5.33;;;3.27;;
14613;SDS011;7393;51.446;6.800;2023-02-28T05:58:50;5.30;;;3.10;;
14613;SDS011;7393;51.446;6.800;2023-02-28T06:01:21;6.50;;;3.80;;
14613;SDS011;7393;51.446;6.800;2023-02-28T06:03:49;4.53;;;3.33;;
14613;SDS011;7393;51.446;6.800;2023-02-28T06:06:16;4.80;;;3.33;;
14613;SDS011;7393;51.446;6.800;2023-02-28T06:08:44;4.87;;;3.40;;
14613;SDS011;7393;51.446;6.800;2023-02-28T06:11:11;9.07;;;3.20;;
14613;SDS011;7393;51.446;6.800;2023-02-28T06:13:38;7.60;;;3.30;;
14613;SDS011;7393;51.446;6.800;2023-02-28T06:16:05;4.53;;;3.13;;
14613;SDS011;7393;51.446;6.800;2023-02-28T06:18:34;6.30;;;3.57;;
14613;SDS011;7393;51.446;6.800;2023-02-28T06:21:00;7.30;;;3.40;;
14613;SDS011;7393;51.446;6.800;2023-02-28T06:23:28;4.30;;;3.13;;
14613;SDS011;7393;51.446;6.800;2023-02-28T06:25:56;4.17;;;3.17;;
14613;SDS011;7393;51.446;6.800;2023-02-28T06:28:23;8.50;;;3.70;;
14613;SDS011;7393;51.446;6.800;2023-02-28T06:30:50;10.93;;;3.80;;
14613;SDS011;7393;51.446;6.800;2023-02-28T06:33:17;6.93;;;3.13;;
14613;SDS011;7393;51.446;6.800;2023-02-28T06:35:44;4.93;;;3.10;;
14613;SDS011;7393;51.446;6.800;2023-02-28T06:38:13;7.90;;;3.80;;
14613;SDS011;7393;51.446;6.800;2023-02-28T06:40:40;5.23;;;3.13;;
14613;SDS011;7393;51.446;6.800;2023-02-28T06:43:08;8.57;;;3.23;;
14613;SDS011;7393;51.446;6.800;2023-02-28T06:45:40;12.03;;;3.27;;
14613;SDS011;7393;51.446;6.800;2023-02-28T06:48:08;8.13;;;3.57;;
14613;SDS011;7393;51.446;6.800;2023-02-28T06:50:35;6.03;;;3.20;;
14613;SDS011;7393;51.446;6.800;2023-02-28T06:53:03;5.50;;;2.90;;
14613;SDS011;7393;51.446;6.800;2023-02-28T06:55:29;4.77;;;3.03;;
14613;SDS011;7393;51.446;6.800;2023-02-28T06:57:57;4.73;;;2.90;;
14613;SDS011;7393;51.446;6.800;2023-02-28T07:00:25;4.20;;;2.80;;
14613;SDS011;7393;51.446;6.800;2023-02-28T07:02:52;3.63;;;2.47;;
14613;SDS011;7393;51.446;6.800;2023-02-28T07:05:20;5.70;;;2.93;;
14613;SDS011;7393;51.446;6.800;2023-02-28T07:07:46;3.83;;;2.50;;
14613;SDS011;7393;51.446;6.800;2023-02-28T07:10:13;8.33;;;3.27;;
14613;SDS011;7393;51.446;6.800;2023-02-28T07:12:41;3.30;;;2.63;;
14613;SDS011;7393;51.446;6.800;2023-02-28T07:15:09;4.17;;;2.80;;
14613;SDS011;7393;51.446;6.800;2023-02-28T07:17:38;4.63;;;2.87;;
14613;SDS011;7393;51.446;6.800;2023-02-28T07:20:05;9.00;;;3.00;;
14613;SDS011;7393;51.446;6.800;2023-02-28T07:22:32;4.70;;;3.00;;
14613;SDS011;7393;51.446;6.800;2023-02-28T07:24:59;5.33;;;2.77;;
14613;SDS011;7393;51.446;6.800;2023-02-28T07:27:26;4.27;;;2.80;;
14613;SDS011;7393;51.446;6.800;2023-02-28T07:29:53;4.43;;;2.97;;
14613;SDS011;7393;51.446;6.800;2023-02-28T07:32:19;4.40;;;2.73;;
14613;SDS011;7393;51.446;6.800;2023-02-28T07:34:48;5.63;;;2.53;;
14613;SDS011;7393;51.446;6.800;2023-02-28T07:37:14;5.80;;;3.07;;
14613;SDS011;7393;51.446;6.800;2023-02-28T07:39:41;4.90;;;3.20;;
14613;SDS011;7393;51.446;6.800;2023-02-28T07:42:08;6.30;;;2.83;;
14613;SDS011;7393;51.446;6.800;2023-02-28T07:44:37;5.40;;;2.97;;
14613;SDS011;7393;51.446;6.800;2023-02-28T07:47:05;3.87;;;2.77;;
14613;SDS011;7393;51.446;6.800;2023-02-28T07:49:33;4.73;;;3.23;;
14613;SDS011;7393;51.446;6.800;2023-02-28T07:52:02;4.47;;;2.90;;
14613;SDS011;7393;51.446;6.800;2023-02-28T07:54:29;5.57;;;3.13;;
14613;SDS011;7393;51.446;6.800;2023-02-28T07:56:56;3.50;;;2.70;;
14613;SDS011;7393;51.446;6.800;2023-02-28T07:59:22;5.17;;;2.73;;
14613;SDS011;7393;51.446;6.800;2023-02-28T08:01:50;2.93;;;2.30;;
14613;SDS011;7393;51.446;6.800;2023-02-28T08:04:16;4.40;;;2.60;;
14613;SDS011;7393;51.446;6.800;2023-02-28T08:06:43;3.10;;;2.50;;
14613;SDS011;7393;51.446;6.800;2023-02-28T08:09:11;6.73;;;2.80;;
14613;SDS011;7393;51.446;6.800;2023-02-28T08:11:39;3.67;;;2.60;;
14613;SDS011;7393;51.446;6.800;2023-02-28T08:14:06;4.00;;;2.57;;
14613;SDS011;7393;51.446;6.800;2023-02-28T08:16:33;3.87;;;2.60;;
14613;SDS011;7393;51.446;6.800;2023-02-28T08:18:59;5.83;;;2.63;;
14613;SDS011;7393;51.446;6.800;2023-02-28T08:21:26;4.60;;;2.33;;
14613;SDS011;7393;51.446;6.800;2023-02-28T08:23:53;4.10;;;2.77;;
14613;SDS011;7393;51.446;6.800;2023-02-28T08:26:23;2.87;;;2.37;;
14613;SDS011;7393;51.446;6.800;2023-02-28T08:28:49;3.60;;;2.60;;
14613;SDS011;7393;51.446;6.800;2023-02-28T08:31:17;6.30;;;2.70;;
14613;SDS011;7393;51.446;6.800;2023-02-28T08:33:44;4.00;;;2.93;;
14613;SDS011;7393;51.446;6.800;2023-02-28T08:36:13;3.73;;;2.77;;
14613;SDS011;7393;51.446;6.800;2023-02-28T08:38:41;3.53;;;2.57;;
14613;SDS011;7393;51.446;6.800;2023-02-28T08:41:09;3.50;;;2.43;;
14613;SDS011;7393;51.446;6.800;2023-02-28T08:43:39;4.03;;;2.73;;
14613;SDS011;7393;51.446;6.800;2023-02-28T08:46:06;3.93;;;2.67;;
14613;SDS011;7393;51.446;6.800;2023-02-28T08:48:37;3.13;;;2.37;;
14613;SDS011;7393;51.446;6.800;2023-02-28T08:51:04;3.97;;;2.50;;
14613;SDS011;7393;51.446;6.800;2023-02-28T08:53:32;3.83;;;2.70;;
14613;SDS011;7393;51.446;6.800;2023-02-28T08:55:59;3.40;;;2.63;;
14613;SDS011;7393;51.446;6.800;2023-02-28T08:58:28;4.73;;;2.90;;
14613;SDS011;7393;51.446;6.800;2023-02-28T09:00:56;3.97;;;2.33;;
14613;SDS011;7393;51.446;6.800;2023-02-28T09:03:23;3.33;;;2.20;;
14613;SDS011;7393;51.446;6.800;2023-02-28T09:05:52;3.50;;;2.07;;
14613;SDS011;7393;51.446;6.800;2023-02-28T09:08:20;2.97;;;2.10;;
14613;SDS011;7393;51.446;6.800;2023-02-28T09:10:47;4.43;;;2.70;;
14613;SDS011;7393;51.446;6.800;2023-02-28T09:13:14;3.77;;;2.30;;
14613;SDS011;7393;51.446;6.800;2023-02-28T09:15:41;4.37;;;2.33;;
14613;SDS011;7393;51.446;6.800;2023-02-28T09:18:09;3.70;;;2.43;;
14613;SDS011;7393;51.446;6.800;2023-02-28T09:20:37;3.00;;;2.03;;
14613;SDS011;7393;51.446;6.800;2023-02-28T09:23:04;2.90;;;1.93;;
14613;SDS011;7393;51.446;6.800;2023-02-28T09:25:31;4.43;;;2.23;;
14613;SDS011;7393;51.446;6.800;2023-02-28T09:27:58;4.97;;;2.37;;
14613;SDS011;7393;51.446;6.800;2023-02-28T09:30:24;4.63;;;2.20;;
14613;SDS011;7393;51.446;6.800;2023-02-28T09:32:51;2.67;;;1.90;;
14613;SDS011;7393;51.446;6.800;2023-02-28T09:35:20;2.63;;;1.87;;
14613;SDS011;7393;51.446;6.800;2023-02-28T09:37:47;2.70;;;2.23;;
14613;SDS011;7393;51.446;6.800;2023-02-28T09:40:14;2.40;;;1.90;;
14613;SDS011;7393;51.446;6.800;2023-02-28T09:42:44;3.27;;;2.13;;
14613;SDS011;7393;51.446;6.800;2023-02-28T09:45:22;2.87;;;2.10;;
14613;SDS011;7393;51.446;6.800;2023-02-28T09:47:54;3.53;;;1.90;;
14613;SDS011;7393;51.446;6.800;2023-02-28T09:50:28;3.13;;;1.97;;
14613;SDS011;7393;51.446;6.800;2023-02-28T09:52:58;2.63;;;1.80;;
14613;SDS011;7393;51.446;6.800;2023-02-28T09:55:28;3.03;;;2.10;;
14613;SDS011;7393;51.446;6.800;2023-02-28T09:57:59;4.47;;;1.97;;
14613;SDS011;7393;51.446;6.800;2023-02-28T10:00:28;3.57;;;1.90;;
14613;SDS011;7393;51.446;6.800;2023-02-28T10:03:03;2.00;;;1.53;;
14613;SDS011;7393;51.446;6.800;2023-02-28T10:05:38;5.10;;;1.47;;
14613;SDS011;7393;51.446;6.800;2023-02-28T10:08:10;2.77;;;1.77;;
14613;SDS011;7393;51.446;6.800;2023-02-28T10:10:40;2.53;;;1.80;;
14613;SDS011;7393;51.446;6.800;2023-02-28T10:13:13;5.17;;;2.13;;
14613;SDS011;7393;51.446;6.800;2023-02-28T10:15:46;3.57;;;2.10;;
14613;SDS011;7393;51.446;6.800;2023-02-28T10:18:19;4.30;;;2.10;;
14613;SDS011;7393;51.446;6.800;2023-02-28T10:20:52;3.03;;;1.80;;
14613;SDS011;7393;51.446;6.800;2023-02-28T10:23:21;2.70;;;1.80;;
14613;SDS011;7393;51.446;6.800;2023-02-28T10:25:53;3.17;;;1.80;;
14613;SDS011;7393;51.446;6.800;2023-02-28T10:28:23;4.07;;;1.97;;
14613;SDS011;7393;51.446;6.800;2023-02-28T10:30:52;2.20;;;1.67;;
14613;SDS011;7393;51.446;6.800;2023-02-28T10:33:21;2.87;;;1.80;;
14613;SDS011;7393;51.446;6.800;2023-02-28T10:35:49;2.90;;;1.87;;
14613;SDS011;7393;51.446;6.800;2023-02-28T10:38:19;2.07;;;1.70;;
14613;SDS011;7393;51.446;6.800;2023-02-28T10:40:47;3.80;;;1.80;;
14613;SDS011;7393;51.446;6.800;2023-02-28T10:43:18;2.53;;;1.50;;
14613;SDS011;7393;51.446;6.800;2023-02-28T10:45:55;3.23;;;1.90;;
14613;SDS011;7393;51.446;6.800;2023-02-28T10:48:26;2.80;;;2.00;;
14613;SDS011;7393;51.446;6.800;2023-02-28T10:50:57;2.30;;;1.70;;
14613;SDS011;7393;51.446;6.800;2023-02-28T10:56:15;2.93;;;2.10;;
14613;SDS011;7393;51.446;6.800;2023-02-28T10:58:51;4.07;;;2.17;;
14613;SDS011;7393;51.446;6.800;2023-02-28T11:01:20;2.47;;;1.73;;
14613;SDS011;7393;51.446;6.800;2023-02-28T11:03:49;2.43;;;1.50;;
14613;SDS011;7393;51.446;6.800;2023-02-28T11:06:19;1.93;;;1.73;;
14613;SDS011;7393;51.446;6.800;2023-02-28T11:08:49;3.07;;;1.80;;
14613;SDS011;7393;51.446;6.800;2023-02-28T11:11:17;3.00;;;1.60;;
14613;SDS011;7393;51.446;6.800;2023-02-28T11:13:46;3.17;;;1.80;;
14613;SDS011;7393;51.446;6.800;2023-02-28T11:16:15;3.13;;;1.60;;
14613;SDS011;7393;51.446;6.800;2023-02-28T11:18:44;1.73;;;1.30;;
14613;SDS011;7393;51.446;6.800;2023-02-28T11:21:23;3.60;;;1.80;;
14613;SDS011;7393;51.446;6.800;2023-02-28T11:23:54;4.00;;;1.43;;
14613;SDS011;7393;51.446;6.800;2023-02-28T11:26:37;5.57;;;1.70;;
14613;SDS011;7393;51.446;6.800;2023-02-28T11:29:17;4.03;;;1.60;;
14613;SDS011;7393;51.446;6.800;2023-02-28T11:32:01;3.10;;;1.33;;
14613;SDS011;7393;51.446;6.800;2023-02-28T11:34:31;2.63;;;1.60;;
14613;SDS011;7393;51.446;6.800;2023-02-28T11:36:59;5.30;;;1.67;;
14613;SDS011;7393;51.446;6.800;2023-02-28T11:39:30;4.87;;;1.60;;
14613;SDS011;7393;51.446;6.800;2023-02-28T11:42:16;4.27;;;1.60;;
14613;SDS011;7393;51.446;6.800;2023-02-28T11:47:52;1.77;;;1.50;;
14613;SDS011;7393;51.446;6.800;2023-02-28T11:50:32;3.03;;;1.80;;
14613;SDS011;7393;51.446;6.800;2023-02-28T11:53:17;2.43;;;1.60;;
14613;SDS011;7393;51.446;6.800;2023-02-28T11:55:50;1.87;;;1.53;;
14613;SDS011;7393;51.446;6.800;2023-02-28T11:58:24;1.70;;;1.60;;
14613;SDS011;7393;51.446;6.800;2023-02-28T12:01:07;2.47;;;1.80;;
14613;SDS011;7393;51.446;6.800;2023-02-28T12:03:44;1.67;;;1.50;;
14613;SDS011;7393;51.446;6.800;2023-02-28T12:06:18;2.37;;;1.40;;
14613;SDS011;7393;51.446;6.800;2023-02-28T12:08:56;2.13;;;1.43;;
14613;SDS011;7393;51.446;6.800;2023-02-28T12:11:34;4.17;;;1.57;;
14613;SDS011;7393;51.446;6.800;2023-02-28T12:14:19;1.63;;;1.50;;
14613;SDS011;7393;51.446;6.800;2023-02-28T12:17:15;5.13;;;1.77;;
14613;SDS011;7393;51.446;6.800;2023-02-28T12:19:48;1.77;;;1.67;;
14613;SDS011;7393;51.446;6.800;2023-02-28T12:22:29;2.07;;;1.70;;
14613;SDS011;7393;51.446;6.800;2023-02-28T12:27:56;2.10;;;1.80;;
14613;SDS011;7393;51.446;6.800;2023-02-28T12:30:24;2.10;;;1.70;;
14613;SDS011;7393;51.446;6.800;2023-02-28T12:32:55;3.43;;;1.80;;
14613;SDS011;7393;51.446;6.800;2023-02-28T12:35:28;1.53;;;1.43;;
14613;SDS011;7393;51.446;6.800;2023-02-28T12:38:02;2.50;;;1.80;;
14613;SDS011;7393;51.446;6.800;2023-02-28T12:40:43;3.00;;;1.90;;
14613;SDS011;7393;51.446;6.800;2023-02-28T12:43:13;2.23;;;1.80;;
14613;SDS011;7393;51.446;6.800;2023-02-28T12:45:44;2.20;;;1.63;;
14613;SDS011;7393;51.446;6.800;2023-02-28T12:48:15;1.80;;;1.53;;
14613;SDS011;7393;51.446;6.800;2023-02-28T12:50:46;2.47;;;1.90;;
14613;SDS011;7393;51.446;6.800;2023-02-28T12:53:15;1.73;;;1.60;;
14613;SDS011;7393;51.446;6.800;2023-02-28T12:55:54;2.20;;;1.90;;
14613;SDS011;7393;51.446;6.800;2023-02-28T12:58:30;1.77;;;1.67;;
14613;SDS011;7393;51.446;6.800;2023-02-28T13:01:08;3.27;;;1.90;;
14613;SDS011;7393;51.446;6.800;2023-02-28T13:03:58;2.30;;;1.63;;
14613;SDS011;7393;51.446;6.800;2023-02-28T13:06:45;3.67;;;1.87;;
14613;SDS011;7393;51.446;6.800;2023-02-28T13:09:25;4.43;;;2.00;;
14613;SDS011;7393;51.446;6.800;2023-02-28T13:11:55;3.60;;;1.90;;
14613;SDS011;7393;51.446;6.800;2023-02-28T13:14:24;2.87;;;1.60;;
14613;SDS011;7393;51.446;6.800;2023-02-28T13:16:59;4.03;;;1.80;;
14613;SDS011;7393;51.446;6.800;2023-02-28T13:19:37;2.27;;;1.80;;
14613;SDS011;7393;51.446;6.800;2023-02-28T13:22:05;2.87;;;1.97;;
14613;SDS011;7393;51.446;6.800;2023-02-28T13:24:47;5.43;;;2.00;;
14613;SDS011;7393;51.446;6.800;2023-02-28T13:36:06;3.97;;;2.07;;
14613;SDS011;7393;51.446;6.800;2023-02-28T13:38:49;4.37;;;2.90;;
14613;SDS011;7393;51.446;6.800;2023-02-28T13:44:11;4.47;;;2.10;;
14613;SDS011;7393;51.446;6.800;2023-02-28T13:49:51;3.50;;;2.77;;
14613;SDS011;7393;51.446;6.800;2023-02-28T13:52:20;2.50;;;2.10;;
14613;SDS011;7393;51.446;6.800;2023-02-28T13:54:54;4.40;;;2.60;;
14613;SDS011;7393;51.446;6.800;2023-02-28T13:57:30;3.90;;;2.50;;
14613;SDS011;7393;51.446;6.800;2023-02-28T14:00:13;3.23;;;2.17;;
14613;SDS011;7393;51.446;6.800;2023-02-28T14:03:00;3.83;;;2.17;;
14613;SDS011;7393;51.446;6.800;2023-02-28T14:05:38;2.97;;;2.10;;
14613;SDS011;7393;51.446;6.800;2023-02-28T14:08:06;5.17;;;2.40;;
14613;SDS011;7393;51.446;6.800;2023-02-28T14:10:42;4.67;;;2.30;;
14613;SDS011;7393;51.446;6.800;2023-02-28T14:13:12;4.40;;;2.57;;
14613;SDS011;7393;51.446;6.800;2023-02-28T14:16:03;3.20;;;2.30;;
14613;SDS011;7393;51.446;6.800;2023-02-28T14:18:32;2.93;;;2.30;;
14613;SDS011;7393;51.446;6.800;2023-02-28T14:21:09;4.03;;;2.40;;
14613;SDS011;7393;51.446;6.800;2023-02-28T14:26:47;2.53;;;2.20;;
14613;SDS011;7393;51.446;6.800;2023-02-28T14:29:30;2.37;;;2.10;;
14613;SDS011;7393;51.446;6.800;2023-02-28T14:32:13;2.13;;;1.93;;
14613;SDS011;7393;51.446;6.800;2023-02-28T14:34:48;2.20;;;2.00;;
14613;SDS011;7393;51.446;6.800;2023-02-28T14:37:23;4.87;;;2.67;;
14613;SDS011;7393;51.446;6.800;2023-02-28T14:39:54;3.33;;;2.60;;
14613;SDS011;7393;51.446;6.800;2023-02-28T14:42:27;2.67;;;2.00;;
14613;SDS011;7393;51.446;6.800;2023-02-28T14:44:55;4.53;;;2.70;;
14613;SDS011;7393;51.446;6.800;2023-02-28T14:47:24;5.70;;;2.70;;
14613;SDS011;7393;51.446;6.800;2023-02-28T14:49:54;2.60;;;2.40;;
14613;SDS011;7393;51.446;6.800;2023-02-28T14:52:21;3.00;;;2.70;;
14613;SDS011;7393;51.446;6.800;2023-02-28T14:54:51;2.90;;;2.40;;
14613;SDS011;7393;51.446;6.800;2023-02-28T14:57:21;2.80;;;2.50;;
14613;SDS011;7393;51.446;6.800;2023-02-28T14:59:56;3.73;;;2.50;;
14613;SDS011;7393;51.446;6.800;2023-02-28T15:02:25;3.60;;;2.30;;
14613;SDS011;7393;51.446;6.800;2023-02-28T15:04:56;4.03;;;2.10;;
14613;SDS011;7393;51.446;6.800;2023-02-28T15:07:24;4.30;;;2.57;;
14613;SDS011;7393;51.446;6.800;2023-02-28T15:10:17;3.43;;;2.50;;
14613;SDS011;7393;51.446;6.800;2023-02-28T15:12:48;3.00;;;2.50;;
14613;SDS011;7393;51.446;6.800;2023-02-28T15:15:21;4.53;;;2.50;;
14613;SDS011;7393;51.446;6.800;2023-02-28T15:17:52;3.10;;;2.53;;
14613;SDS011;7393;51.446;6.800;2023-02-28T15:20:22;2.47;;;2.20;;
14613;SDS011;7393;51.446;6.800;2023-02-28T15:22:50;4.63;;;2.40;;
14613;SDS011;7393;51.446;6.800;2023-02-28T15:25:21;4.10;;;2.50;;
14613;SDS011;7393;51.446;6.800;2023-02-28T15:27:49;3.47;;;2.50;;
14613;SDS011;7393;51.446;6.800;2023-02-28T15:30:19;5.00;;;2.90;;
14613;SDS011;7393;51.446;6.800;2023-02-28T15:33:03;3.30;;;2.60;;
14613;SDS011;7393;51.446;6.800;2023-02-28T15:35:33;3.10;;;2.47;;
14613;SDS011;7393;51.446;6.800;2023-02-28T15:38:01;2.77;;;2.33;;
14613;SDS011;7393;51.446;6.800;2023-02-28T15:40:30;3.10;;;2.47;;
14613;SDS011;7393;51.446;6.800;2023-02-28T15:43:06;4.03;;;3.03;;
14613;SDS011;7393;51.446;6.800;2023-02-28T15:45:40;3.20;;;2.83;;
14613;SDS011;7393;51.446;6.800;2023-02-28T15:48:17;3.87;;;3.07;;